Time;durP1;ratioP1;P1;durP2;ratioP2;P2;SDS_P1;SDS_P2;PMS_P1;PMS_P2;Temp;Humidity;BMP_temperature;BMP_pressure;BME280_temperature;BME280_humidity;BME280_pressure;Samples;Min_cycle;Max_cycle;Signal;HPM_P1;HPM_P2
2021/06/27 00:01:51;;;;;;;6.92;5.70;;;;;;;22.55;100.00;99971.11;1805545;79;20976;-46
2021/06/27 00:04:18;;;;;;;7.30;5.65;;;;;;;22.52;100.00;99963.33;1800514;79;21010;-45
2021/06/27 00:06:44;;;;;;;10.05;6.40;;;;;;;22.51;100.00;99957.05;1774660;79;21473;-44
2021/06/27 00:09:11;;;;;;;7.12;5.65;;;;;;;22.51;100.00;99961.65;1757323;79;21019;-45
2021/06/27 00:11:38;;;;;;;8.83;6.42;;;;;;;22.44;100.00;99960.16;1799607;79;21014;-44
2021/06/27 00:14:07;;;;;;;11.73;6.22;;;;;;;22.28;100.00;99957.03;1798211;79;20952;-45
2021/06/27 00:16:35;;;;;;;;;;;;;;;22.20;100.00;99962.48;1788657;79;20959;-44
2021/06/27 00:19:03;;;;;;;9.10;7.97;;;;;;;22.19;100.00;99967.55;1788057;79;20094;-44
2021/06/27 00:21:30;;;;;;;13.48;11.88;;;;;;;22.20;100.00;99974.20;1788164;79;21022;-43
2021/06/27 00:23:57;;;;;;;11.50;7.90;;;;;;;22.22;100.00;99974.85;1786359;79;21419;-44
2021/06/27 00:26:25;;;;;;;5.72;5.22;;;;;;;22.27;100.00;99968.05;1781181;79;21098;-44
2021/06/27 00:28:52;;;;;;;6.10;5.15;;;;;;;22.25;100.00;99975.01;1786266;79;21471;-44
2021/06/27 00:31:19;;;;;;;7.30;6.53;;;;;;;22.25;100.00;99981.31;1785628;79;21018;-45
2021/06/27 00:33:45;;;;;;;7.40;5.78;;;;;;;22.25;100.00;99974.52;1775625;79;21763;-45
2021/06/27 00:36:12;;;;;;;8.53;6.50;;;;;;;22.22;100.00;99968.58;1787397;79;21530;-45
2021/06/27 00:38:40;;;;;;;6.58;5.10;;;;;;;22.19;100.00;99965.71;1791587;79;20939;-44
2021/06/27 00:41:06;;;;;;;6.30;5.65;;;;;;;;;;1808221;79;20976;-45
2021/06/27 00:43:33;;;;;;;7.45;6.03;;;;;;;22.22;100.00;99972.66;1808778;78;21466;-44
2021/06/27 00:46:00;;;;;;;7.65;6.62;;;;;;;22.22;100.00;99974.02;1806545;78;21008;-45
2021/06/27 00:48:27;;;;;;;7.05;6.35;;;;;;;22.22;100.00;99981.64;1782544;79;21030;-44
2021/06/27 00:50:56;;;;;;;6.58;5.28;;;;;;;22.18;100.00;99974.86;1797631;79;21092;-43
2021/06/27 00:53:22;;;;;;;8.15;5.50;;;;;;;22.18;100.00;99978.93;1796778;79;21470;-45
2021/06/27 00:55:56;;;;;;;6.72;5.67;;;;;;;22.16;100.00;99975.54;1806550;78;21491;-44
2021/06/27 00:58:31;;;;;;;8.45;6.25;;;;;;;22.14;100.00;99969.44;1789272;79;20951;-44
2021/06/27 01:00:59;;;;;;;8.03;5.85;;;;;;;22.14;100.00;99975.38;1791094;79;21698;-44
2021/06/27 01:03:26;;;;;;;11.65;6.97;;;;;;;22.13;100.00;99981.33;1775796;79;20979;-45
2021/06/27 01:05:52;;;;;;;8.90;8.00;;;;;;;22.11;100.00;99986.08;1782343;79;21015;-44
2021/06/27 01:08:20;;;;;;;9.63;8.75;;;;;;;22.08;100.00;99987.80;1780605;79;21014;-43
2021/06/27 01:10:48;;;;;;;8.33;7.60;;;;;;;22.08;100.00;99981.02;1786445;79;21018;-44
2021/06/27 01:13:16;;;;;;;7.00;6.35;;;;;;;22.08;100.00;99972.88;1805686;79;21023;-43
2021/06/27 01:15:44;;;;;;;8.10;5.87;;;;;;;22.07;100.00;99980.66;1794088;79;21014;-42
2021/06/27 01:18:10;;;;;;;6.00;5.45;;;;;;;22.04;100.00;99985.09;1795980;79;20975;-42
2021/06/27 01:20:38;;;;;;;7.20;5.37;;;;;;;22.02;100.00;99988.48;1791237;79;20955;-42
2021/06/27 01:23:12;;;;;;;7.67;6.00;;;;;;;22.00;100.00;99983.77;1797881;79;20983;-43
2021/06/27 01:25:44;;;;;;;7.10;5.92;;;;;;;21.98;100.00;99977.66;1808056;78;21023;-44
2021/06/27 01:30:47;;;;;;;7.60;6.87;;;;;;;22.00;100.00;99978.34;1804707;79;22231;-42
2021/06/27 01:33:16;;;;;;;8.05;6.20;;;;;;;21.97;100.00;99984.09;1772339;79;20954;-42
2021/06/27 01:35:43;;;;;;;8.18;7.37;;;;;;;21.96;100.00;99983.26;1781663;79;20967;-41
2021/06/27 01:38:12;;;;;;;10.75;7.00;;;;;;;21.94;100.00;99975.80;1782633;80;20960;-42
2021/06/27 01:40:40;;;;;;;;;;;;;;;21.92;100.00;99980.55;1785772;80;20955;-43
2021/06/27 01:43:22;;;;;;;6.92;5.90;;;;;;;21.92;100.00;99976.48;1778638;80;20128;-43
2021/06/27 01:45:53;;;;;;;9.15;6.30;;;;;;;21.88;100.00;99964.81;1774577;79;20955;-42
2021/06/27 01:48:20;;;;;;;8.20;6.47;;;;;;;21.85;100.00;99971.92;1718234;82;20980;-41
2021/06/27 01:50:48;;;;;;;8.63;6.60;;;;;;;21.81;100.00;99975.00;1708073;82;21011;-41
2021/06/27 01:53:18;;;;;;;8.65;6.40;;;;;;;21.79;100.00;99981.09;1704825;83;21467;-42
2021/06/27 01:55:45;;;;;;;8.08;6.58;;;;;;;21.76;100.00;99976.03;1734389;82;20995;-40
2021/06/27 01:58:11;;;;;;;6.72;6.15;;;;;;;21.77;100.00;99980.45;1723605;82;21404;-41
2021/06/27 02:00:40;;;;;;;8.38;6.35;;;;;;;21.80;100.00;99985.52;1721171;82;20947;-41
2021/06/27 02:03:07;;;;;;;8.13;6.42;;;;;;;21.82;100.00;99984.84;1744863;81;21430;-41
2021/06/27 02:05:33;;;;;;;6.87;6.17;;;;;;;21.83;100.00;99997.38;1749313;81;21005;-41
2021/06/27 02:08:01;;;;;;;10.45;7.03;;;;;;;21.83;100.00;100000.61;1717040;81;21489;-42
2021/06/27 02:10:28;;;;;;;11.35;7.12;;;;;;;21.81;100.00;99998.57;1720812;82;21010;-42
2021/06/27 02:12:56;;;;;;;7.87;7.08;;;;;;;21.80;100.00;99999.61;1726626;82;20943;-42
2021/06/27 02:15:23;;;;;;;8.65;6.30;;;;;;;21.81;100.00;100000.77;1728613;82;20971;-42
2021/06/27 02:18:19;;;;;;;10.03;7.33;;;;;;;21.82;100.00;100006.55;1722625;82;20983;-43
2021/06/27 02:20:48;;;;;;;9.98;6.62;;;;;;;21.80;100.00;100009.10;1719806;82;20983;-41
2021/06/27 02:23:15;;;;;;;9.25;7.22;;;;;;;21.77;100.00;100022.51;1716226;82;21363;-42
2021/06/27 02:25:42;;;;;;;8.15;6.95;;;;;;;21.76;100.00;100022.16;1719960;82;21058;-41
2021/06/27 02:28:09;;;;;;;9.08;6.58;;;;;;;21.77;100.00;100024.34;1698015;82;20955;-42
2021/06/27 02:30:37;;;;;;;8.03;6.70;;;;;;;21.76;100.00;100026.22;1684231;83;21011;-40
2021/06/27 02:33:04;;;;;;;7.97;7.17;;;;;;;21.75;100.00;100022.34;1688122;83;20992;-41
2021/06/27 02:35:32;;;;;;;6.78;6.15;;;;;;;21.71;100.00;100028.61;1685930;83;20968;-41
2021/06/27 02:37:58;;;;;;;7.87;6.87;;;;;;;21.70;100.00;100026.92;1688894;83;21455;-41
2021/06/27 02:40:25;;;;;;;16.07;14.23;;;;;;;21.70;100.00;100022.86;1690033;83;21941;-42
2021/06/27 02:42:52;;;;;;;12.10;10.50;;;;;;;21.71;100.00;100030.48;1688341;83;21559;-41
2021/06/27 02:45:18;;;;;;;8.25;7.58;;;;;;;21.70;100.00;100043.20;1685979;83;21038;-41
2021/06/27 02:47:46;;;;;;;11.03;7.60;;;;;;;21.69;100.00;100046.08;1680235;84;21023;-41
2021/06/27 02:50:14;;;;;;;8.83;7.65;;;;;;;21.67;100.00;100044.91;1688641;83;21482;-42
2021/06/27 02:52:41;;;;;;;7.75;6.95;;;;;;;21.67;100.00;100047.63;1683572;83;20976;-42
2021/06/27 02:55:10;;;;;;;8.30;7.50;;;;;;;21.66;100.00;100042.36;1682512;83;20987;-44
2021/06/27 02:57:37;;;;;;;7.65;6.92;;;;;;;21.64;100.00;100039.80;1683285;83;20956;-42
2021/06/27 03:00:06;;;;;;;7.92;7.05;;;;;;;21.65;100.00;100046.11;1681007;83;20967;-41
2021/06/27 03:02:33;;;;;;;7.55;6.58;;;;;;;21.66;100.00;100044.55;1681984;84;21015;-43
2021/06/27 03:04:59;;;;;;;8.30;7.50;;;;;;;21.66;100.00;100043.72;1682702;83;20961;-42
2021/06/27 03:07:26;;;;;;;7.85;6.65;;;;;;;21.66;100.00;100047.27;1731571;81;21621;-43
2021/06/27 03:09:53;;;;;;;7.97;7.17;;;;;;;21.67;100.00;100048.11;1741668;80;21966;-44
2021/06/27 03:12:19;;;;;;;10.10;7.50;;;;;;;21.67;100.00;100055.77;1738118;80;21024;-40
2021/06/27 03:14:46;;;;;;;8.20;7.33;;;;;;;21.69;100.00;100060.48;1742701;81;20991;-43
2021/06/27 03:17:15;;;;;;;9.00;7.67;;;;;;;21.68;100.00;100064.23;1738627;80;20976;-42
2021/06/27 03:19:46;;;;;;;9.20;7.35;;;;;;;21.68;100.00;100057.45;1740247;80;21012;-41
2021/06/27 03:22:12;;;;;;;7.97;7.28;;;;;;;21.68;100.00;100057.96;1743149;81;20964;-43
2021/06/27 03:24:39;;;;;;;14.98;7.83;;;;;;;21.66;100.00;100055.41;1738739;80;21007;-43
2021/06/27 03:27:07;;;;;;;8.08;6.97;;;;;;;21.65;100.00;100055.08;1739119;81;21075;-41
2021/06/27 03:29:34;;;;;;;12.15;9.65;;;;;;;21.67;100.00;100053.05;1746022;81;20984;-43
2021/06/27 03:32:00;;;;;;;10.82;7.92;;;;;;;21.68;100.00;100049.30;1742660;80;21003;-41
2021/06/27 03:34:27;;;;;;;9.13;7.85;;;;;;;21.70;100.00;100050.50;1750391;80;21011;-42
2021/06/27 03:36:54;;;;;;;8.55;7.22;;;;;;;21.69;100.00;100047.44;1750340;81;20947;-42
2021/06/27 03:39:21;;;;;;;10.10;7.97;;;;;;;21.68;100.00;100042.52;1752118;80;20971;-41
2021/06/27 03:41:57;;;;;;;12.63;7.92;;;;;;;21.69;100.00;100037.42;1746802;81;20991;-40
2021/06/27 03:44:17;;;;;;;9.18;7.12;;;;;;;21.69;100.00;100038.78;1706630;82;21027;-40
2021/06/27 03:46:43;;;;;;;9.30;8.28;;;;;;;21.70;100.00;100031.00;1749213;80;20978;-40
2021/06/27 03:49:10;;;;;;;7.78;7.08;;;;;;;21.73;100.00;100028.45;1747379;80;20967;-41
2021/06/27 03:51:38;;;;;;;8.30;7.40;;;;;;;21.76;100.00;100023.51;1750919;81;20954;-41
2021/06/27 03:54:05;;;;;;;12.13;10.93;;;;;;;21.80;100.00;100025.38;1750163;80;20988;-41
2021/06/27 03:56:31;;;;;;;12.80;8.80;;;;;;;21.85;100.00;100033.84;1745224;80;20964;-40
2021/06/27 03:58:58;;;;;;;12.23;8.58;;;;;;;21.91;100.00;100039.09;1744223;80;20960;-41
2021/06/27 04:01:25;;;;;;;8.85;7.78;;;;;;;21.97;100.00;100035.66;1744002;81;20946;-41
2021/06/27 04:03:51;;;;;;;8.88;8.08;;;;;;;22.03;100.00;100030.39;1744939;81;20952;-42
2021/06/27 04:06:20;;;;;;;11.03;8.20;;;;;;;22.06;100.00;100029.20;1741615;81;21471;-41
2021/06/27 04:08:46;;;;;;;9.20;8.30;;;;;;;22.09;100.00;100024.77;1744269;82;21873;-43
2021/06/27 04:11:14;;;;;;;8.00;7.20;;;;;;;22.12;100.00;100021.70;1746082;80;21002;-42
2021/06/27 04:13:43;;;;;;;9.43;8.05;;;;;;;22.15;100.00;100021.38;1740874;80;20951;-43
2021/06/27 04:16:09;;;;;;;10.60;8.38;;;;;;;22.17;100.00;100014.39;1740052;80;21527;-43
2021/06/27 04:18:37;;;;;;;10.43;7.60;;;;;;;22.17;100.00;100006.24;1701785;82;20967;-45
2021/06/27 04:21:04;;;;;;;8.93;7.90;;;;;;;22.18;100.00;100012.02;1741868;80;21581;-45
2021/06/27 04:23:32;;;;;;;8.93;7.60;;;;;;;22.23;100.00;100006.42;1746950;81;21015;-43
2021/06/27 04:25:59;;;;;;;12.82;8.15;;;;;;;22.27;100.00;100002.00;1737930;80;21565;-42
2021/06/27 04:28:26;;;;;;;7.67;6.75;;;;;;;22.31;100.00;100006.90;1740299;81;20943;-43
2021/06/27 04:30:52;;;;;;;7.92;7.12;;;;;;;22.35;100.00;100011.45;1744436;80;21007;-44
2021/06/27 04:33:19;;;;;;;10.35;8.13;;;;;;;22.39;100.00;100018.23;1743457;80;21014;-44
2021/06/27 04:35:46;;;;;;;8.93;8.08;;;;;;;22.42;100.00;100021.42;1732937;80;21000;-45
2021/06/27 04:38:16;;;;;;;10.23;8.30;;;;;;;22.43;100.00;100017.70;1743348;81;20986;-45
2021/06/27 04:40:42;;;;;;;9.58;8.70;;;;;;;22.45;100.00;100021.09;1743371;81;20973;-44
2021/06/27 04:43:09;;;;;;;10.18;7.97;;;;;;;22.47;100.00;100023.61;1751739;81;20972;-46
2021/06/27 04:45:40;;;;;;;10.75;8.38;;;;;;;22.46;100.00;100028.20;1746189;80;21454;-47
2021/06/27 04:48:08;;;;;;;9.20;7.95;;;;;;;22.43;100.00;100019.58;1747280;81;20965;-47
2021/06/27 04:50:35;;;;;;;10.38;8.68;;;;;;;22.40;100.00;100026.70;1741612;81;21473;-45
2021/06/27 04:53:02;;;;;;;7.80;7.10;;;;;;;22.40;100.00;100034.84;1751564;81;20956;-43
2021/06/27 04:55:29;;;;;;;12.43;7.80;;;;;;;22.40;100.00;100037.56;1742722;80;21017;-42
2021/06/27 04:57:55;;;;;;;10.18;9.08;;;;;;;22.41;100.00;100037.40;1741912;80;20982;-44
2021/06/27 05:00:22;;;;;;;10.63;7.92;;;;;;;22.43;100.00;100044.02;1741659;81;20969;-42
2021/06/27 05:02:48;;;;;;;9.83;8.25;;;;;;;22.42;100.00;100055.38;1707217;83;20981;-43
2021/06/27 05:05:15;;;;;;;11.70;7.25;;;;;;;22.43;100.00;100063.87;1747312;80;20983;-43
2021/06/27 05:07:42;;;;;;;8.43;7.62;;;;;;;22.45;100.00;100070.47;1733285;81;20949;-44
2021/06/27 05:10:10;;;;;;;8.25;7.00;;;;;;;22.47;100.00;100068.43;1698336;83;20977;-43
2021/06/27 05:12:36;;;;;;;7.40;6.70;;;;;;;22.47;100.00;100073.86;1755204;81;21452;-43
2021/06/27 05:15:04;;;;;;;8.53;6.42;;;;;;;22.45;100.00;100074.55;1747225;81;21025;-43
2021/06/27 05:17:31;;;;;;;7.17;6.42;;;;;;;22.45;100.00;100078.62;1741533;81;21029;-44
2021/06/27 05:19:57;;;;;;;7.58;6.03;;;;;;;22.47;100.00;100086.92;1734837;80;21000;-43
2021/06/27 05:22:24;;;;;;;8.55;6.37;;;;;;;22.49;100.00;100090.00;1740096;80;21476;-44
2021/06/27 05:24:50;;;;;;;7.78;6.37;;;;;;;22.52;100.00;100088.28;1731889;80;21019;-44
2021/06/27 05:27:17;;;;;;;12.10;6.67;;;;;;;22.53;100.00;100084.03;1749328;80;21055;-44
2021/06/27 05:29:43;;;;;;;8.60;6.40;;;;;;;22.55;100.00;100091.47;1747953;81;20985;-45
2021/06/27 05:32:10;;;;;;;7.45;6.65;;;;;;;22.55;100.00;100086.04;1740613;81;20940;-44
2021/06/27 05:34:36;;;;;;;8.08;6.42;;;;;;;22.53;100.00;100089.47;1745234;80;20968;-43
2021/06/27 05:37:03;;;;;;;9.05;6.47;;;;;;;22.53;100.00;100094.03;1730855;80;20991;-42
2021/06/27 05:39:30;;;;;;;7.90;6.67;;;;;;;22.57;100.00;100087.23;1744412;81;20957;-43
2021/06/27 05:41:56;;;;;;;8.85;7.17;;;;;;;22.57;100.00;100086.72;1741004;81;20983;-42
2021/06/27 05:44:24;;;;;;;7.33;6.22;;;;;;;22.60;100.00;100085.52;1738251;80;20956;-43
2021/06/27 05:46:51;;;;;;;8.20;5.97;;;;;;;22.63;100.00;100087.38;1731031;82;21444;-43
2021/06/27 05:49:18;;;;;;;6.75;6.05;;;;;;;22.66;100.00;100084.83;1733369;81;21000;-43
2021/06/27 05:51:45;;;;;;;10.23;6.78;;;;;;;22.72;100.00;100088.17;1749834;81;21020;-43
2021/06/27 05:54:11;;;;;;;11.35;6.85;;;;;;;22.75;100.00;100086.45;1739949;80;20968;-43
2021/06/27 05:56:38;;;;;;;7.58;6.87;;;;;;;22.81;100.00;100080.84;1742550;81;20970;-42
2021/06/27 05:59:05;;;;;;;8.40;7.22;;;;;;;22.82;100.00;100077.09;1709867;83;20966;-43
2021/06/27 06:01:32;;;;;;;7.35;6.53;;;;;;;22.84;100.00;100069.61;1703631;83;20949;-45
2021/06/27 06:03:59;;;;;;;8.05;7.25;;;;;;;22.89;100.00;100067.19;1746232;80;20945;-44
2021/06/27 06:06:26;;;;;;;8.05;6.15;;;;;;;22.91;100.00;100073.30;1731150;82;21360;-43
2021/06/27 06:08:54;;;;;;;6.53;5.28;;;;;;;22.92;100.00;100067.34;1733236;80;20999;-46
2021/06/27 06:11:24;;;;;;;9.40;5.97;;;;;;;22.96;100.00;100067.34;1737252;82;21008;-43
2021/06/27 06:13:49;;;;;;;10.23;6.87;;;;;;;22.99;100.00;100060.20;1734906;81;21015;-45
2021/06/27 06:16:16;;;;;;;7.85;5.92;;;;;;;22.99;100.00;100051.53;1735287;80;20957;-43
2021/06/27 06:18:44;;;;;;;13.28;5.50;;;;;;;22.99;100.00;100055.61;1733803;81;20964;-45
2021/06/27 06:21:13;;;;;;;6.42;4.78;;;;;;;23.03;100.00;100054.23;1735957;80;20972;-44
2021/06/27 06:23:40;;;;;;;5.58;5.08;;;;;;;23.10;100.00;100053.81;1735442;81;21031;-44
2021/06/27 06:26:06;;;;;;;7.42;5.33;;;;;;;23.19;100.00;100051.05;1732175;80;21036;-42
2021/06/27 06:28:33;;;;;;;6.10;5.12;;;;;;;23.27;100.00;100061.86;1731087;81;21024;-45
2021/06/27 06:31:00;;;;;;;6.80;5.62;;;;;;;23.33;100.00;100059.27;1731344;80;21590;-43
2021/06/27 06:33:27;;;;;;;7.30;4.65;;;;;;;23.40;100.00;100053.08;1735625;80;21468;-44
2021/06/27 06:35:54;;;;;;;6.35;4.15;;;;;;;23.45;100.00;100053.38;1736163;80;20928;-43
2021/06/27 06:38:20;;;;;;;4.83;4.05;;;;;;;23.50;100.00;100056.39;1746038;81;20951;-45
2021/06/27 06:40:47;;;;;;;6.15;4.47;;;;;;;23.57;100.00;100055.16;1703692;82;21015;-45
2021/06/27 06:43:14;;;;;;;5.83;4.17;;;;;;;23.63;100.00;100050.31;1754786;80;20987;-44
2021/06/27 06:45:42;;;;;;;7.92;4.67;;;;;;;23.68;100.00;100047.36;1755834;80;21412;-43
2021/06/27 06:48:09;;;;;;;5.85;4.20;;;;;;;23.72;100.00;100035.61;1753910;80;20943;-45
2021/06/27 06:50:36;;;;;;;5.05;3.72;;;;;;;23.76;100.00;100032.86;1711261;82;21821;-42
2021/06/27 06:53:03;;;;;;;5.00;3.40;;;;;;;23.79;100.00;100032.52;1745103;80;20992;-44
2021/06/27 06:55:31;;;;;;;6.58;3.40;;;;;;;23.80;100.00;100028.75;1749752;80;20955;-46
2021/06/27 06:57:58;;;;;;;7.05;3.77;;;;;;;23.84;100.00;100024.63;1732604;80;21404;-44
2021/06/27 07:00:25;;;;;;;5.28;3.92;;;;;;;23.88;100.00;100029.17;1743135;80;21036;-45
2021/06/27 07:02:52;;;;;;;4.65;3.65;;;;;;;23.92;100.00;100021.81;1738734;81;21451;-43
2021/06/27 07:05:18;;;;;;;6.95;3.47;;;;;;;23.96;100.00;100008.16;1746796;80;21018;-48
2021/06/27 07:07:45;;;;;;;4.20;3.20;;;;;;;23.98;100.00;100003.34;1735054;81;20929;-44
2021/06/27 07:10:13;;;;;;;5.83;3.98;;;;;;;23.98;100.00;100001.16;1744841;80;21535;-43
2021/06/27 07:12:41;;;;;;;4.50;4.10;;;;;;;24.01;100.00;100007.58;1751290;80;21020;-43
2021/06/27 07:15:09;;;;;;;5.50;4.03;;;;;;;24.05;100.00;99999.38;1737089;80;20959;-41
2021/06/27 07:17:36;;;;;;;5.95;3.40;;;;;;;24.09;100.00;99983.48;1739263;81;21032;-42
2021/06/27 07:20:08;;;;;;;3.30;2.98;;;;;;;24.11;100.00;99971.89;1742813;80;21078;-45
2021/06/27 07:22:35;;;;;;;4.37;3.70;;;;;;;24.13;100.00;99975.28;1739940;81;20961;-42
2021/06/27 07:25:04;;;;;;;4.30;3.40;;;;;;;24.14;100.00;99976.95;1736914;80;21395;-43
2021/06/27 07:27:31;;;;;;;3.67;3.20;;;;;;;24.15;100.00;99973.22;1743133;81;21531;-41
2021/06/27 07:29:57;;;;;;;6.78;3.52;;;;;;;24.16;100.00;99962.11;1734893;81;20987;-41
2021/06/27 07:32:24;;;;;;;4.72;3.55;;;;;;;24.16;100.00;99959.39;1740868;80;20956;-43
2021/06/27 07:34:51;;;;;;;4.45;3.40;;;;;;;24.15;100.00;99953.63;1744676;80;21320;-42
2021/06/27 07:37:17;;;;;;;9.20;8.30;;;;;;;24.15;100.00;99952.27;1747905;80;21433;-41
2021/06/27 07:39:44;;;;;;;5.00;4.50;;;;;;;24.17;100.00;99946.12;1747668;80;20991;-41
2021/06/27 07:42:11;;;;;;;4.45;4.05;;;;;;;24.19;100.00;99943.19;1745036;80;21003;-41
2021/06/27 07:44:37;;;;;;;5.17;4.55;;;;;;;24.22;100.00;99937.88;1712918;82;21008;-41
2021/06/27 07:47:05;;;;;;;3.72;3.42;;;;;;;24.24;100.00;99934.45;1750624;80;21000;-45
2021/06/27 07:49:31;;;;;;;4.15;3.37;;;;;;;24.25;100.00;99916.56;1753704;80;21000;-43
2021/06/27 07:51:58;;;;;;;6.37;3.67;;;;;;;24.30;100.00;99913.27;1710582;83;21003;-43
2021/06/27 07:54:25;;;;;;;5.25;3.77;;;;;;;24.33;100.00;99910.16;1751378;80;20998;-41
2021/06/27 07:56:52;;;;;;;3.72;3.22;;;;;;;24.35;100.00;99906.72;1747923;81;21007;-44
2021/06/27 07:59:18;;;;;;;5.08;3.80;;;;;;;24.37;100.00;99899.20;1740497;80;20951;-43
2021/06/27 08:01:45;;;;;;;6.83;3.72;;;;;;;24.39;100.00;99901.20;1748982;81;21455;-43
2021/06/27 08:04:12;;;;;;;4.67;3.25;;;;;;;24.42;100.00;99900.83;1722555;80;20939;-43
2021/06/27 08:06:39;;;;;;;4.75;3.58;;;;;;;24.45;100.00;99912.73;1752901;80;20952;-43
2021/06/27 08:09:05;;;;;;;4.00;3.60;;;;;;;24.49;100.00;99922.19;1741641;80;20991;-44
2021/06/27 08:11:33;;;;;;;4.47;3.27;;;;;;;24.53;100.00;99924.02;1741735;80;20952;-42
2021/06/27 08:14:01;;;;;;;5.47;3.90;;;;;;;24.56;100.00;99923.10;1754751;80;20975;-43
2021/06/27 08:16:27;;;;;;;4.55;2.92;;;;;;;24.59;100.00;99923.23;1730210;80;21404;-42
2021/06/27 08:18:54;;;;;;;3.12;2.70;;;;;;;24.59;100.00;99920.50;1735514;80;21026;-45
2021/06/27 08:21:21;;;;;;;7.97;2.67;;;;;;;24.61;99.82;99923.89;1742328;80;21033;-44
2021/06/27 08:23:47;;;;;;;5.62;3.85;;;;;;;24.63;97.13;99918.25;1736023;81;20952;-43
2021/06/27 08:26:13;;;;;;;2.98;2.47;;;;;;;24.65;96.72;99918.91;1750030;80;21895;-42
2021/06/27 08:28:40;;;;;;;4.20;2.98;;;;;;;24.66;96.04;99917.33;1736497;80;20957;-43
2021/06/27 08:31:08;;;;;;;3.42;2.05;;;;;;;24.70;95.61;99912.35;1741509;80;21539;-44
2021/06/27 08:33:35;;;;;;;5.00;4.15;;;;;;;24.74;96.19;99916.36;1745997;81;21023;-43
2021/06/27 08:36:02;;;;;;;4.20;2.77;;;;;;;24.75;95.33;99909.36;1703090;82;21003;-42
2021/06/27 08:38:29;;;;;;;4.72;2.50;;;;;;;24.78;94.16;99902.14;1743518;81;21011;-42
2021/06/27 08:40:56;;;;;;;5.37;3.27;;;;;;;24.82;95.11;99898.00;1750918;80;20961;-43
2021/06/27 08:43:32;;;;;;;3.77;2.80;;;;;;;24.87;95.56;99892.45;1753239;81;20987;-47
2021/06/27 08:46:04;;;;;;;3.27;2.60;;;;;;;24.91;95.93;99891.88;1744920;80;21003;-45
2021/06/27 08:48:28;;;;;;;5.83;3.20;;;;;;;24.98;97.72;99891.94;1749955;80;20971;-45
2021/06/27 08:50:55;;;;;;;3.95;2.90;;;;;;;25.04;98.02;99893.33;1743232;80;21004;-45
2021/06/27 08:53:22;;;;;;;3.20;2.90;;;;;;;25.11;98.94;99898.02;1752128;80;20971;-45
2021/06/27 08:56:05;;;;;;;6.15;2.58;;;;;;;25.15;100.00;99890.61;1738934;80;21746;-44
2021/06/27 08:58:40;;;;;;;3.30;2.55;;;;;;;25.20;94.03;99886.80;1751862;80;20971;-44
2021/06/27 09:01:14;;;;;;;3.47;2.75;;;;;;;25.26;93.83;99890.07;1743996;80;20967;-44
2021/06/27 09:03:41;;;;;;;5.30;3.58;;;;;;;25.30;91.32;99893.75;1746678;80;20975;-43
2021/06/27 09:06:09;;;;;;;4.20;3.75;;;;;;;25.35;94.02;99897.59;1742567;80;20971;-46
2021/06/27 09:08:36;;;;;;;6.95;4.17;;;;;;;25.38;93.82;99902.64;1747284;80;21360;-46
2021/06/27 09:11:14;;;;;;;7.08;5.10;;;;;;;25.42;93.09;99900.34;1742661;80;20971;-47
2021/06/27 09:13:44;;;;;;;7.67;4.60;;;;;;;25.45;93.11;99901.30;1751999;80;21011;-45
2021/06/27 09:16:23;;;;;;;6.83;3.22;;;;;;;25.50;90.51;99905.64;1748070;80;20967;-46
2021/06/27 09:18:51;;;;;;;4.15;3.40;;;;;;;25.57;89.90;99902.95;1747182;80;20932;-49
2021/06/27 09:21:19;;;;;;;5.40;3.00;;;;;;;25.62;95.09;99906.77;1746433;80;21212;-43
2021/06/27 09:23:48;;;;;;;6.33;3.27;;;;;;;25.70;99.86;99909.84;1752310;80;20899;-42
2021/06/27 09:26:30;;;;;;;6.75;3.15;;;;;;;25.77;96.43;99918.08;1746422;80;20943;-43
2021/06/27 09:28:58;;;;;;;4.62;3.40;;;;;;;25.80;95.79;99917.67;1744844;80;21015;-43
2021/06/27 09:31:40;;;;;;;4.12;3.27;;;;;;;25.79;96.37;99919.56;1746809;81;21542;-42
2021/06/27 09:34:13;;;;;;;5.25;3.50;;;;;;;25.81;96.06;99924.30;1752119;80;21022;-43
2021/06/27 09:36:51;;;;;;;4.95;3.50;;;;;;;25.83;93.44;99915.39;1739535;80;20949;-42
2021/06/27 09:39:18;;;;;;;8.10;4.15;;;;;;;25.85;93.11;99924.23;1752633;80;20971;-42
2021/06/27 09:41:52;;;;;;;8.13;3.42;;;;;;;25.86;95.22;99920.48;1738903;80;21012;-42
2021/06/27 09:44:19;;;;;;;5.67;4.87;;;;;;;25.87;96.43;99922.68;1736138;80;20956;-42
2021/06/27 09:46:52;;;;;;;4.08;3.62;;;;;;;25.89;95.08;99924.69;1736769;81;21862;-40
2021/06/27 09:49:31;;;;;;;5.62;4.15;;;;;;;25.90;94.68;99920.90;1739293;81;20996;-41
2021/06/27 09:52:12;;;;;;;5.45;4.05;;;;;;;25.94;94.33;99928.18;1739891;81;21000;-41
2021/06/27 09:54:36;;;;;;;5.90;3.77;;;;;;;25.96;96.90;99932.39;1734736;80;20947;-41
2021/06/27 09:57:05;;;;;;;6.90;4.45;;;;;;;25.98;98.11;99933.04;1731209;82;20960;-42
2021/06/27 09:59:37;;;;;;;4.85;4.10;;;;;;;26.00;98.60;99930.08;1725355;80;20916;-44
2021/06/27 10:02:05;;;;;;;3.90;3.55;;;;;;;25.98;97.83;99934.41;1742027;80;20953;-44
2021/06/27 10:04:33;;;;;;;4.17;3.60;;;;;;;25.99;92.16;99930.61;1734594;80;20954;-42
2021/06/27 10:07:02;;;;;;;4.33;3.80;;;;;;;26.00;89.93;99924.09;1740408;80;20980;-45
2021/06/27 10:09:33;;;;;;;5.60;3.90;;;;;;;26.04;88.19;99928.64;1742107;80;20940;-44
2021/06/27 10:12:11;;;;;;;6.70;4.08;;;;;;;26.07;91.62;99927.70;1733606;81;21012;-44
2021/06/27 10:14:55;;;;;;;5.03;4.22;;;;;;;26.10;94.18;99940.94;1733215;81;20995;-45
2021/06/27 10:17:25;;;;;;;6.08;4.35;;;;;;;26.10;92.81;99933.28;1734601;81;20999;-44
2021/06/27 10:19:54;;;;;;;5.78;4.40;;;;;;;26.11;93.02;99933.61;1742020;80;20944;-42
2021/06/27 10:22:25;;;;;;;6.78;4.50;;;;;;;26.09;93.14;99939.27;1751136;82;20980;-40
2021/06/27 10:24:56;;;;;;;8.20;4.85;;;;;;;26.09;95.57;99941.16;1736415;81;20975;-43
2021/06/27 10:27:27;;;;;;;4.50;4.10;;;;;;;26.10;98.33;99938.20;1727614;81;21045;-40
2021/06/27 10:29:54;;;;;;;5.70;5.10;;;;;;;26.11;97.33;99938.55;1741180;80;20952;-41
2021/06/27 10:32:21;;;;;;;5.20;4.70;;;;;;;26.11;96.34;99938.55;1744532;81;20934;-41
2021/06/27 10:34:48;;;;;;;5.62;4.33;;;;;;;26.11;94.54;99939.91;1744161;81;20940;-41
2021/06/27 10:37:35;;;;;;;4.87;4.20;;;;;;;26.13;94.35;99950.61;1745649;82;21424;-40
2021/06/27 10:40:11;;;;;;;4.22;3.83;;;;;;;26.14;92.30;99940.56;1744872;81;21528;-43
2021/06/27 10:43:00;;;;;;;5.97;4.47;;;;;;;26.16;92.72;99948.87;1736688;82;21264;-42
2021/06/27 10:45:41;;;;;;;5.67;4.12;;;;;;;26.18;92.54;99943.18;1750438;80;20992;-41
2021/06/27 10:48:35;;;;;;;4.85;4.30;;;;;;;26.17;92.30;99939.61;1729410;80;20948;-45
2021/06/27 10:51:04;;;;;;;4.40;3.70;;;;;;;26.15;90.14;99944.96;1734564;80;21027;-44
2021/06/27 10:54:09;;;;;;;;;;;;;;;26.16;90.97;99946.13;1729888;80;20944;-43
2021/06/27 10:56:59;;;;;;;5.35;4.53;;;;;;;26.14;89.92;99946.02;1735579;81;20100;-43
2021/06/27 10:59:48;;;;;;;5.97;4.70;;;;;;;26.09;89.02;99944.73;1739538;81;21000;-44
2021/06/27 11:02:21;;;;;;;5.83;4.10;;;;;;;26.08;89.92;99952.62;1737976;81;20969;-44
2021/06/27 11:04:50;;;;;;;5.17;3.77;;;;;;;26.08;89.38;99956.72;1740394;80;20986;-40
2021/06/27 11:07:41;;;;;;;5.97;4.45;;;;;;;26.08;91.38;99961.31;1743368;81;20952;-41
2021/06/27 11:10:25;;;;;;;5.00;4.12;;;;;;;26.08;91.56;99957.21;1733555;80;20917;-42
2021/06/27 11:13:07;;;;;;;5.33;4.28;;;;;;;26.06;91.43;99954.70;1728937;81;21544;-42
2021/06/27 11:15:37;;;;;;;6.08;4.53;;;;;;;26.06;92.31;99958.80;1734584;81;20936;-44
2021/06/27 11:18:11;;;;;;;4.95;4.30;;;;;;;26.05;92.18;99961.19;1746690;81;20949;-45
2021/06/27 11:20:46;;;;;;;6.50;4.65;;;;;;;26.05;92.81;99957.09;1732090;80;20923;-44
2021/06/27 11:23:13;;;;;;;5.22;4.72;;;;;;;26.05;94.12;99960.36;1671071;83;20980;-44
2021/06/27 11:25:43;;;;;;;5.70;5.20;;;;;;;26.04;94.34;99962.25;1649531;85;20971;-44
2021/06/27 11:28:24;;;;;;;5.70;4.70;;;;;;;26.02;95.99;99962.97;1689317;83;21123;-41
2021/06/27 11:30:55;;;;;;;5.37;4.55;;;;;;;25.98;100.00;99978.09;1690191;83;20950;-42
2021/06/27 11:33:25;;;;;;;4.58;4.15;;;;;;;25.89;100.00;99980.66;1678839;83;21045;-42
2021/06/27 11:35:56;;;;;;;7.33;5.37;;;;;;;25.80;100.00;99989.48;1681257;83;20955;-43